PRIVATE WETTERSTATION BILLIGHEIM-ALLFELD                       ZURCK
Wetterdaten: Dienstag, 15.04.2014
Datum Zeit Temp. A. Temp. A. min Temp. A. max Feuchte A. Luftdruck Regen Wind Richtung Richtung Sonnenschein ET Solar Taupunkt Windchill Windben Empfang
15.04.2014 00:00 6,3 C 6,3 C 6,5 C 68 % 1019,8 hPa 0,0 l/m 8,0 km/h (2 Bft) NW 315 0 min 0,025 mm 0 W/m 0,8 C 5,0 C 19,3 km/h (3 Bft) 100 %
15.04.2014 00:10 6,2 C 6,2 C 6,3 C 69 % 1019,8 hPa 0,0 l/m 8,0 km/h (2 Bft) NW 315 0 min 0,000 mm 0 W/m 0,9 C 4,9 C 17,7 km/h (3 Bft) 100 %
15.04.2014 00:20 6,1 C 6,1 C 6,2 C 68 % 1020,1 hPa 0,0 l/m 12,9 km/h (3 Bft) NW 315 0 min 0,000 mm 0 W/m 0,6 C 1,5 C 27,4 km/h (4 Bft) 100 %
15.04.2014 00:30 6,1 C 6,1 C 6,1 C 69 % 1020,1 hPa 0,0 l/m 12,9 km/h (3 Bft) NW 315 0 min 0,000 mm 0 W/m 0,8 C 1,5 C 29,0 km/h (5 Bft) 99 %
15.04.2014 00:40 6,0 C 6,0 C 6,1 C 69 % 1020,4 hPa 0,0 l/m 12,9 km/h (3 Bft) NW 315 0 min 0,000 mm 0 W/m 0,8 C 1,4 C 27,4 km/h (4 Bft) 100 %
15.04.2014 00:50 5,9 C 5,9 C 6,0 C 70 % 1020,6 hPa 0,0 l/m 8,0 km/h (2 Bft) NW 315 0 min 0,000 mm 0 W/m 0,9 C 4,5 C 19,3 km/h (3 Bft) 100 %
15.04.2014 01:00 5,7 C 5,7 C 5,9 C 71 % 1020,7 hPa 0,0 l/m 8,0 km/h (2 Bft) NW 315 0 min 0,051 mm 0 W/m 0,9 C 4,3 C 17,7 km/h (3 Bft) 97 %
15.04.2014 01:10 5,6 C 5,6 C 5,7 C 71 % 1020,7 hPa 0,0 l/m 6,4 km/h (2 Bft) NW 315 0 min 0,000 mm 0 W/m 0,8 C 5,6 C 17,7 km/h (3 Bft) 96 %
15.04.2014 01:20 5,5 C 5,5 C 5,6 C 73 % 1020,9 hPa 0,0 l/m 4,8 km/h (1 Bft) NW 315 0 min 0,000 mm 0 W/m 1,1 C 5,5 C 16,1 km/h (3 Bft) 98 %
15.04.2014 01:30 5,3 C 5,3 C 5,5 C 75 % 1021,0 hPa 0,0 l/m 1,6 km/h (1 Bft) NW 315 0 min 0,000 mm 0 W/m 1,2 C 5,3 C 14,5 km/h (3 Bft) 94 %
15.04.2014 01:40 4,8 C 4,8 C 5,3 C 78 % 1021,2 hPa 0,0 l/m 1,6 km/h (1 Bft) N-NO 22 0 min 0,000 mm 0 W/m 1,3 C 4,8 C 11,3 km/h (2 Bft) 99 %
15.04.2014 01:50 4,5 C 4,4 C 4,8 C 80 % 1021,1 hPa 0,0 l/m 1,6 km/h (1 Bft) N-NW 337 0 min 0,000 mm 0 W/m 1,4 C 4,5 C 17,7 km/h (3 Bft) 100 %
15.04.2014 02:00 4,1 C 4,1 C 4,4 C 80 % 1021,0 hPa 0,0 l/m 0,0 km/h (0 Bft) N-NW 337 0 min 0,025 mm 0 W/m 1,0 C 4,1 C 6,4 km/h (2 Bft) 100 %
15.04.2014 02:10 3,7 C 3,7 C 4,1 C 82 % 1021,0 hPa 0,0 l/m 1,6 km/h (1 Bft) NW 315 0 min 0,000 mm 0 W/m 0,9 C 3,7 C 8,0 km/h (2 Bft) 98 %
15.04.2014 02:20 3,4 C 3,4 C 3,7 C 83 % 1021,0 hPa 0,0 l/m 0,0 km/h (0 Bft) NW 315 0 min 0,000 mm 0 W/m 0,8 C 3,4 C 6,4 km/h (2 Bft) 100 %
15.04.2014 02:30 3,2 C 3,2 C 3,4 C 83 % 1021,0 hPa 0,0 l/m 6,4 km/h (2 Bft) NW 315 0 min 0,000 mm 0 W/m 0,6 C 3,2 C 19,3 km/h (3 Bft) 100 %
15.04.2014 02:40 3,2 C 3,2 C 3,2 C 82 % 1021,0 hPa 0,0 l/m 8,0 km/h (2 Bft) NW 315 0 min 0,000 mm 0 W/m 0,4 C 1,7 C 14,5 km/h (3 Bft) 100 %
15.04.2014 02:50 3,3 C 3,2 C 3,3 C 81 % 1021,1 hPa 0,0 l/m 6,4 km/h (2 Bft) NW 315 0 min 0,000 mm 0 W/m 0,4 C 3,3 C 17,7 km/h (3 Bft) 97 %
15.04.2014 03:00 3,3 C 3,3 C 3,3 C 80 % 1021,3 hPa 0,0 l/m 3,2 km/h (1 Bft) NW 315 0 min 0,025 mm 0 W/m 0,2 C 3,3 C 11,3 km/h (2 Bft) 98 %
15.04.2014 03:10 3,3 C 3,3 C 3,3 C 80 % 1021,3 hPa 0,0 l/m 4,8 km/h (1 Bft) NW 315 0 min 0,000 mm 0 W/m 0,2 C 3,3 C 12,9 km/h (3 Bft) 94 %
15.04.2014 03:20 3,2 C 3,2 C 3,3 C 81 % 1021,3 hPa 0,0 l/m 1,6 km/h (1 Bft) NW 315 0 min 0,000 mm 0 W/m 0,3 C 3,2 C 8,0 km/h (2 Bft) 100 %
15.04.2014 03:30 3,0 C 3,0 C 3,2 C 81 % 1021,3 hPa 0,0 l/m 1,6 km/h (1 Bft) NW 315 0 min 0,000 mm 0 W/m 0,1 C 3,0 C 6,4 km/h (2 Bft) 100 %
15.04.2014 03:40 2,9 C 2,9 C 3,0 C 82 % 1021,5 hPa 0,0 l/m 0,0 km/h (0 Bft) N-NW 337 0 min 0,000 mm 0 W/m 0,1 C 2,9 C 3,2 km/h (1 Bft) 93 %
15.04.2014 03:50 2,8 C 2,8 C 2,9 C 83 % 1021,5 hPa 0,0 l/m 0,0 km/h (0 Bft) NW 315 0 min 0,000 mm 0 W/m 0,2 C 2,8 C 1,6 km/h (1 Bft) 100 %
15.04.2014 04:00 2,7 C 2,7 C 2,8 C 83 % 1021,5 hPa 0,0 l/m 0,0 km/h (0 Bft) NW 315 0 min 0,000 mm 0 W/m 0,1 C 2,7 C 4,8 km/h (1 Bft) 100 %
15.04.2014 04:10 2,6 C 2,6 C 2,7 C 84 % 1021,6 hPa 0,0 l/m 1,6 km/h (1 Bft) NW 315 0 min 0,000 mm 0 W/m 0,2 C 2,6 C 8,0 km/h (2 Bft) 100 %
15.04.2014 04:20 2,5 C 2,5 C 2,6 C 84 % 1021,5 hPa 0,0 l/m 1,6 km/h (1 Bft) NW 315 0 min 0,000 mm 0 W/m 0,1 C 2,5 C 8,0 km/h (2 Bft) 97 %
15.04.2014 04:30 2,4 C 2,4 C 2,5 C 84 % 1021,6 hPa 0,0 l/m 3,2 km/h (1 Bft) NW 315 0 min 0,000 mm 0 W/m -0,0 C 2,4 C 9,7 km/h (2 Bft) 98 %
15.04.2014 04:40 2,4 C 2,4 C 2,4 C 84 % 1021,6 hPa 0,0 l/m 1,6 km/h (1 Bft) NW 315 0 min 0,000 mm 0 W/m -0,0 C 2,4 C 8,0 km/h (2 Bft) 100 %
15.04.2014 04:50 2,3 C 2,3 C 2,4 C 84 % 1021,6 hPa 0,0 l/m 4,8 km/h (1 Bft) NW 315 0 min 0,000 mm 0 W/m -0,1 C 2,3 C 9,7 km/h (2 Bft) 100 %
15.04.2014 05:00 2,3 C 2,3 C 2,3 C 84 % 1021,7 hPa 0,0 l/m 3,2 km/h (1 Bft) NW 315 0 min 0,000 mm 0 W/m -0,1 C 2,3 C 8,0 km/h (2 Bft) 89 %
15.04.2014 05:10 2,3 C 2,3 C 2,3 C 84 % 1021,7 hPa 0,0 l/m 3,2 km/h (1 Bft) NW 315 0 min 0,000 mm 0 W/m -0,1 C 2,3 C 11,3 km/h (2 Bft) 100 %
15.04.2014 05:20 2,2 C 2,2 C 2,3 C 84 % 1021,8 hPa 0,0 l/m 0,0 km/h (0 Bft) NW 315 0 min 0,000 mm 0 W/m -0,2 C 2,2 C 1,6 km/h (1 Bft) 100 %
15.04.2014 05:30 2,1 C 2,1 C 2,2 C 85 % 1021,8 hPa 0,0 l/m 0,0 km/h (0 Bft) NW 315 0 min 0,000 mm 0 W/m -0,2 C 2,1 C 1,6 km/h (1 Bft) 100 %
15.04.2014 05:40 2,0 C 2,0 C 2,1 C 85 % 1021,7 hPa 0,0 l/m 0,0 km/h (0 Bft) NW 315 0 min 0,000 mm 0 W/m -0,3 C 2,0 C 3,2 km/h (1 Bft) 100 %
15.04.2014 05:50 1,9 C 1,9 C 2,0 C 85 % 1021,9 hPa 0,0 l/m 0,0 km/h (0 Bft) W-NW 292 0 min 0,000 mm 0 W/m -0,3 C 1,9 C 1,6 km/h (1 Bft) 100 %
15.04.2014 06:00 1,8 C 1,8 C 1,9 C 85 % 1022,0 hPa 0,0 l/m 0,0 km/h (0 Bft) W-NW 292 0 min 0,000 mm 0 W/m -0,4 C 1,8 C 4,8 km/h (1 Bft) 100 %
15.04.2014 06:10 1,7 C 1,7 C 1,8 C 85 % 1022,1 hPa 0,0 l/m 0,0 km/h (0 Bft) W-NW 292 0 min 0,000 mm 0 W/m -0,5 C 1,7 C 1,6 km/h (1 Bft) 100 %
15.04.2014 06:20 1,7 C 1,7 C 1,7 C 86 % 1022,2 hPa 0,0 l/m 1,6 km/h (1 Bft) W-NW 292 0 min 0,000 mm 0 W/m -0,4 C 1,7 C 8,0 km/h (2 Bft) 99 %
15.04.2014 06:30 1,8 C 1,7 C 1,8 C 86 % 1022,4 hPa 0,0 l/m 0,0 km/h (0 Bft) W-NW 292 0 min 0,000 mm 0 W/m -0,3 C 1,8 C 6,4 km/h (2 Bft) 100 %
15.04.2014 06:40 1,8 C 1,8 C 1,8 C 86 % 1022,5 hPa 0,0 l/m 0,0 km/h (0 Bft) W-NW 292 0 min 0,000 mm 7 W/m -0,3 C 1,8 C 4,8 km/h (1 Bft) 100 %
15.04.2014 06:50 1,9 C 1,8 C 1,9 C 85 % 1022,6 hPa 0,0 l/m 1,6 km/h (1 Bft) NW 315 0 min 0,000 mm 12 W/m -0,3 C 1,9 C 4,8 km/h (1 Bft) 100 %
15.04.2014 07:00 1,9 C 1,9 C 1,9 C 85 % 1022,7 hPa 0,0 l/m 0,0 km/h (0 Bft) NW 315 0 min 0,000 mm 14 W/m -0,3 C 1,9 C 3,2 km/h (1 Bft) 99 %
15.04.2014 07:10 2,0 C 1,9 C 2,0 C 85 % 1022,9 hPa 0,0 l/m 1,6 km/h (1 Bft) W-NW 292 0 min 0,000 mm 23 W/m -0,3 C 2,0 C 6,4 km/h (2 Bft) 99 %
15.04.2014 07:20 2,1 C 2,0 C 2,1 C 85 % 1022,9 hPa 0,0 l/m 0,0 km/h (0 Bft) W-NW 292 0 min 0,000 mm 33 W/m -0,2 C 2,1 C 4,8 km/h (1 Bft) 100 %
15.04.2014 07:30 2,3 C 2,1 C 2,3 C 85 % 1023,1 hPa 0,0 l/m 0,0 km/h (0 Bft) W-NW 292 0 min 0,000 mm 40 W/m 0,0 C 2,3 C 1,6 km/h (1 Bft) 100 %
15.04.2014 07:40 2,5 C 2,3 C 2,5 C 84 % 1023,2 hPa 0,0 l/m 0,0 km/h (0 Bft) N-NW 337 0 min 0,000 mm 46 W/m 0,1 C 2,5 C 4,8 km/h (1 Bft) 100 %
15.04.2014 07:50 2,7 C 2,5 C 2,7 C 84 % 1023,2 hPa 0,0 l/m 0,0 km/h (0 Bft) N-NW 337 0 min 0,000 mm 58 W/m 0,3 C 2,7 C 4,8 km/h (1 Bft) 100 %
15.04.2014 08:00 2,9 C 2,7 C 2,9 C 83 % 1023,3 hPa 0,0 l/m 3,2 km/h (1 Bft) NW 315 0 min 0,025 mm 86 W/m 0,3 C 2,9 C 8,0 km/h (2 Bft) 91 %
15.04.2014 08:10 3,2 C 2,9 C 3,2 C 83 % 1023,3 hPa 0,0 l/m 4,8 km/h (1 Bft) NW 315 0 min 0,000 mm 113 W/m 0,6 C 3,2 C 11,3 km/h (2 Bft) 100 %
15.04.2014 08:20 3,4 C 3,2 C 3,4 C 81 % 1023,4 hPa 0,0 l/m 6,4 km/h (2 Bft) NW 315 0 min 0,000 mm 125 W/m 0,5 C 3,4 C 11,3 km/h (2 Bft) 100 %
15.04.2014 08:30 3,7 C 3,4 C 3,7 C 81 % 1023,5 hPa 0,0 l/m 4,8 km/h (1 Bft) NW 315 10 min 0,000 mm 167 W/m 0,7 C 3,7 C 9,7 km/h (2 Bft) 100 %
15.04.2014 08:40 4,0 C 3,7 C 4,0 C 80 % 1023,5 hPa 0,0 l/m 4,8 km/h (1 Bft) NW 315 10 min 0,000 mm 153 W/m 0,9 C 4,0 C 9,7 km/h (2 Bft) 100 %
15.04.2014 08:50 4,3 C 4,1 C 4,3 C 79 % 1023,5 hPa 0,0 l/m 4,8 km/h (1 Bft) NW 315 0 min 0,000 mm 149 W/m 1,0 C 4,3 C 12,9 km/h (3 Bft) 100 %
15.04.2014 09:00 4,6 C 4,3 C 4,6 C 77 % 1023,6 hPa 0,0 l/m 4,8 km/h (1 Bft) NW 315 10 min 0,051 mm 183 W/m 0,9 C 4,6 C 11,3 km/h (2 Bft) 100 %
15.04.2014 09:10 4,7 C 4,6 C 4,7 C 75 % 1023,6 hPa 0,0 l/m 6,4 km/h (2 Bft) W-NW 292 10 min 0,000 mm 197 W/m 0,7 C 4,7 C 14,5 km/h (3 Bft) 100 %
15.04.2014 09:20 5,0 C 4,8 C 5,0 C 75 % 1023,7 hPa 0,0 l/m 4,8 km/h (1 Bft) NW 315 10 min 0,000 mm 202 W/m 0,9 C 5,0 C 16,1 km/h (3 Bft) 100 %
15.04.2014 09:30 5,3 C 5,0 C 5,3 C 73 % 1023,7 hPa 0,0 l/m 4,8 km/h (1 Bft) NW 315 10 min 0,000 mm 246 W/m 0,9 C 5,3 C 11,3 km/h (2 Bft) 100 %
15.04.2014 09:40 5,6 C 5,3 C 5,6 C 71 % 1023,8 hPa 0,0 l/m 4,8 km/h (1 Bft) W-NW 292 10 min 0,000 mm 260 W/m 0,8 C 5,6 C 16,1 km/h (3 Bft) 100 %
15.04.2014 09:50 5,8 C 5,6 C 5,8 C 69 % 1023,8 hPa 0,0 l/m 9,7 km/h (2 Bft) NW 315 10 min 0,000 mm 241 W/m 0,6 C 3,2 C 19,3 km/h (3 Bft) 100 %
15.04.2014 10:00 5,9 C 5,8 C 5,9 C 67 % 1023,9 hPa 0,0 l/m 8,0 km/h (2 Bft) NW 315 10 min 0,102 mm 248 W/m 0,3 C 4,5 C 17,7 km/h (3 Bft) 100 %
15.04.2014 10:10 6,2 C 5,9 C 6,2 C 66 % 1024,0 hPa 0,0 l/m 6,4 km/h (2 Bft) NW 315 10 min 0,000 mm 246 W/m 0,3 C 6,2 C 17,7 km/h (3 Bft) 99 %
15.04.2014 10:20 6,2 C 6,2 C 6,2 C 65 % 1024,0 hPa 0,0 l/m 8,0 km/h (2 Bft) NW 315 10 min 0,000 mm 255 W/m 0,1 C 4,9 C 22,5 km/h (4 Bft) 100 %
15.04.2014 10:30 6,2 C 6,2 C 6,2 C 63 % 1024,1 hPa 0,0 l/m 9,7 km/h (2 Bft) NW 315 10 min 0,000 mm 204 W/m -0,3 C 3,6 C 19,3 km/h (3 Bft) 100 %
15.04.2014 10:40 6,1 C 6,1 C 6,2 C 64 % 1024,1 hPa 0,0 l/m 6,4 km/h (2 Bft) NW 315 0 min 0,000 mm 137 W/m -0,2 C 6,1 C 16,1 km/h (3 Bft) 100 %
15.04.2014 10:50 5,9 C 5,9 C 6,1 C 64 % 1024,2 hPa 0,0 l/m 6,4 km/h (2 Bft) NW 315 0 min 0,000 mm 149 W/m -0,4 C 5,9 C 20,9 km/h (4 Bft) 100 %
15.04.2014 11:00 6,0 C 5,9 C 6,0 C 66 % 1024,2 hPa 0,0 l/m 6,4 km/h (2 Bft) NW 315 10 min 0,102 mm 167 W/m 0,1 C 6,0 C 16,1 km/h (3 Bft) 99 %
15.04.2014 11:10 6,1 C 6,0 C 6,1 C 65 % 1024,3 hPa 0,0 l/m 4,8 km/h (1 Bft) NW 315 10 min 0,000 mm 200 W/m 0,0 C 6,1 C 12,9 km/h (3 Bft) 99 %
15.04.2014 11:20 6,1 C 6,1 C 6,1 C 65 % 1024,3 hPa 0,0 l/m 4,8 km/h (1 Bft) W-NW 292 10 min 0,000 mm 185 W/m 0,0 C 6,1 C 14,5 km/h (3 Bft) 97 %
15.04.2014 11:30 6,1 C 6,1 C 6,1 C 64 % 1024,4 hPa 0,0 l/m 6,4 km/h (2 Bft) W-NW 292 10 min 0,000 mm 163 W/m -0,2 C 6,1 C 17,7 km/h (3 Bft) 98 %
15.04.2014 11:40 5,9 C 5,9 C 6,1 C 64 % 1024,5 hPa 0,0 l/m 6,4 km/h (2 Bft) W-NW 292 10 min 0,000 mm 172 W/m -0,4 C 5,9 C 20,9 km/h (4 Bft) 96 %
15.04.2014 11:50 6,0 C 5,9 C 6,0 C 65 % 1024,6 hPa 0,0 l/m 6,4 km/h (2 Bft) W-NW 292 10 min 0,000 mm 188 W/m -0,1 C 6,0 C 11,3 km/h (2 Bft) 98 %
15.04.2014 12:00 6,1 C 6,0 C 6,1 C 64 % 1024,7 hPa 0,0 l/m 4,8 km/h (1 Bft) NW 315 10 min 0,076 mm 156 W/m -0,2 C 6,1 C 11,3 km/h (2 Bft) 98 %
15.04.2014 12:10 6,2 C 6,1 C 6,2 C 64 % 1024,7 hPa 0,0 l/m 3,2 km/h (1 Bft) NW 315 0 min 0,000 mm 142 W/m -0,1 C 6,2 C 9,7 km/h (2 Bft) 97 %
15.04.2014 12:20 6,1 C 6,1 C 6,2 C 64 % 1024,8 hPa 0,0 l/m 6,4 km/h (2 Bft) W-NW 292 10 min 0,000 mm 158 W/m -0,2 C 6,1 C 20,9 km/h (4 Bft) 98 %
15.04.2014 12:30 6,2 C 6,1 C 6,2 C 63 % 1024,7 hPa 0,0 l/m 6,4 km/h (2 Bft) W-NW 292 10 min 0,000 mm 160 W/m -0,3 C 6,2 C 16,1 km/h (3 Bft) 97 %
15.04.2014 12:40 6,3 C 6,2 C 6,3 C 64 % 1024,8 hPa 0,0 l/m 6,4 km/h (2 Bft) W-NW 292 10 min 0,000 mm 206 W/m 0,0 C 6,3 C 14,5 km/h (3 Bft) 98 %
15.04.2014 12:50 6,5 C 6,3 C 6,5 C 64 % 1024,9 hPa 0,0 l/m 4,8 km/h (1 Bft) NW 315 10 min 0,000 mm 239 W/m 0,2 C 6,5 C 11,3 km/h (2 Bft) 97 %
15.04.2014 13:00 6,6 C 6,5 C 6,7 C 62 % 1024,8 hPa 0,0 l/m 4,8 km/h (1 Bft) W-NW 292 10 min 0,102 mm 209 W/m -0,1 C 6,6 C 11,3 km/h (2 Bft) 97 %
15.04.2014 13:10 6,5 C 6,5 C 6,7 C 62 % 1024,9 hPa 0,0 l/m 4,8 km/h (1 Bft) W 270 0 min 0,000 mm 127 W/m -0,2 C 6,5 C 17,7 km/h (3 Bft) 98 %
15.04.2014 13:20 6,4 C 6,4 C 6,5 C 64 % 1024,9 hPa 0,0 l/m 6,4 km/h (2 Bft) NW 315 10 min 0,000 mm 195 W/m 0,1 C 6,4 C 11,3 km/h (2 Bft) 97 %
15.04.2014 13:30 6,6 C 6,4 C 6,6 C 66 % 1024,9 hPa 0,0 l/m 4,8 km/h (1 Bft) W-NW 292 10 min 0,000 mm 316 W/m 0,7 C 6,6 C 11,3 km/h (2 Bft) 98 %
15.04.2014 13:40 7,1 C 6,6 C 7,1 C 63 % 1025,0 hPa 0,0 l/m 4,8 km/h (1 Bft) W-NW 292 10 min 0,000 mm 325 W/m 0,5 C 7,1 C 12,9 km/h (3 Bft) 97 %
15.04.2014 13:50 6,9 C 6,9 C 7,1 C 63 % 1025,0 hPa 0,0 l/m 8,0 km/h (2 Bft) NW 315 0 min 0,000 mm 127 W/m 0,4 C 5,6 C 20,9 km/h (4 Bft) 98 %
15.04.2014 14:00 6,5 C 6,5 C 6,9 C 62 % 1025,0 hPa 0,0 l/m 9,7 km/h (2 Bft) NW 315 0 min 0,076 mm 90 W/m -0,2 C 3,9 C 17,7 km/h (3 Bft) 97 %
15.04.2014 14:10 6,3 C 6,3 C 6,5 C 65 % 1025,0 hPa 0,0 l/m 8,0 km/h (2 Bft) NW 315 0 min 0,000 mm 132 W/m 0,2 C 5,0 C 14,5 km/h (3 Bft) 97 %
15.04.2014 14:20 6,3 C 6,3 C 6,3 C 66 % 1024,9 hPa 0,0 l/m 6,4 km/h (2 Bft) NW 315 10 min 0,000 mm 181 W/m 0,4 C 6,3 C 14,5 km/h (3 Bft) 98 %
15.04.2014 14:30 6,5 C 6,3 C 6,5 C 63 % 1024,9 hPa 0,0 l/m 1,6 km/h (1 Bft) W 270 10 min 0,000 mm 274 W/m -0,0 C 6,5 C 8,0 km/h (2 Bft) 97 %
15.04.2014 14:40 6,8 C 6,5 C 6,8 C 62 % 1024,8 hPa 0,0 l/m 4,8 km/h (1 Bft) W-NW 292 10 min 0,000 mm 369 W/m 0,0 C 6,8 C 11,3 km/h (2 Bft) 98 %
15.04.2014 14:50 7,3 C 6,8 C 7,3 C 62 % 1024,8 hPa 0,0 l/m 4,8 km/h (1 Bft) NW 315 10 min 0,000 mm 418 W/m 0,5 C 7,3 C 12,9 km/h (3 Bft) 97 %
15.04.2014 15:00 8,1 C 7,3 C 8,1 C 59 % 1024,7 hPa 0,0 l/m 3,2 km/h (1 Bft) NW 315 10 min 0,127 mm 1067 W/m 0,6 C 8,1 C 14,5 km/h (3 Bft) 98 %
15.04.2014 15:10 7,9 C 7,9 C 8,1 C 57 % 1024,8 hPa 0,0 l/m 6,4 km/h (2 Bft) W-NW 292 10 min 0,000 mm 227 W/m -0,1 C 7,9 C 12,9 km/h (3 Bft) 97 %
15.04.2014 15:20 7,7 C 7,7 C 7,9 C 59 % 1024,8 hPa 0,0 l/m 6,4 km/h (2 Bft) W-NW 292 0 min 0,000 mm 123 W/m 0,2 C 7,7 C 16,1 km/h (3 Bft) 97 %
15.04.2014 15:30 7,5 C 7,5 C 7,7 C 59 % 1024,7 hPa 0,0 l/m 9,7 km/h (2 Bft) NW 315 0 min 0,000 mm 142 W/m 0,0 C 5,0 C 20,9 km/h (4 Bft) 98 %
15.04.2014 15:40 7,4 C 7,4 C 7,5 C 59 % 1024,7 hPa 0,0 l/m 8,0 km/h (2 Bft) NW 315 10 min 0,000 mm 214 W/m -0,1 C 6,1 C 19,3 km/h (3 Bft) 98 %
15.04.2014 15:50 7,5 C 7,4 C 7,5 C 59 % 1024,6 hPa 0,0 l/m 8,0 km/h (2 Bft) NW 315 10 min 0,000 mm 230 W/m 0,0 C 6,2 C 16,1 km/h (3 Bft) 98 %
15.04.2014 16:00 7,7 C 7,5 C 7,7 C 61 % 1024,5 hPa 0,0 l/m 6,4 km/h (2 Bft) NW 315 10 min 0,102 mm 301 W/m 0,7 C 7,7 C 19,3 km/h (3 Bft) 88 %
15.04.2014 16:10 8,1 C 7,7 C 8,1 C 57 % 1024,5 hPa 0,0 l/m 4,8 km/h (1 Bft) NW 315 10 min 0,000 mm 334 W/m 0,1 C 8,1 C 11,3 km/h (2 Bft) 98 %
15.04.2014 16:20 8,4 C 8,1 C 8,4 C 55 % 1024,4 hPa 0,0 l/m 8,0 km/h (2 Bft) NW 315 10 min 0,000 mm 390 W/m -0,1 C 7,2 C 16,1 km/h (3 Bft) 97 %
15.04.2014 16:30 8,3 C 8,3 C 8,4 C 54 % 1024,6 hPa 0,0 l/m 6,4 km/h (2 Bft) NW 315 10 min 0,000 mm 211 W/m -0,5 C 8,3 C 22,5 km/h (4 Bft) 97 %
15.04.2014 16:40 8,0 C 8,0 C 8,3 C 54 % 1024,7 hPa 0,0 l/m 8,0 km/h (2 Bft) NW 315 0 min 0,000 mm 107 W/m -0,7 C 6,8 C 24,1 km/h (4 Bft) 97 %
15.04.2014 16:50 7,8 C 7,8 C 7,9 C 55 % 1024,6 hPa 0,0 l/m 6,4 km/h (2 Bft) W-NW 292 0 min 0,000 mm 139 W/m -0,7 C 7,8 C 19,3 km/h (3 Bft) 98 %
15.04.2014 17:00 7,8 C 7,8 C 7,8 C 57 % 1024,6 hPa 0,0 l/m 8,0 km/h (2 Bft) NW 315 0 min 0,127 mm 146 W/m -0,2 C 6,5 C 17,7 km/h (3 Bft) 98 %
15.04.2014 17:10 7,7 C 7,7 C 7,8 C 57 % 1024,7 hPa 0,0 l/m 8,0 km/h (2 Bft) NW 315 0 min 0,000 mm 142 W/m -0,3 C 6,4 C 20,9 km/h (4 Bft) 99 %
15.04.2014 17:20 7,7 C 7,6 C 7,7 C 58 % 1024,7 hPa 0,0 l/m 4,8 km/h (1 Bft) NW 315 10 min 0,000 mm 294 W/m -0,0 C 7,7 C 11,3 km/h (2 Bft) 98 %
15.04.2014 17:30 7,9 C 7,8 C 7,9 C 57 % 1024,7 hPa 0,0 l/m 6,4 km/h (2 Bft) NW 315 10 min 0,000 mm 188 W/m -0,1 C 7,9 C 16,1 km/h (3 Bft) 99 %
15.04.2014 17:40 7,9 C 7,9 C 7,9 C 58 % 1024,8 hPa 0,0 l/m 3,2 km/h (1 Bft) NW 315 0 min 0,000 mm 125 W/m 0,2 C 7,9 C 16,1 km/h (3 Bft) 100 %
15.04.2014 17:50 7,7 C 7,7 C 7,9 C 56 % 1024,8 hPa 0,0 l/m 8,0 km/h (2 Bft) NW 315 0 min 0,000 mm 107 W/m -0,5 C 6,4 C 19,3 km/h (3 Bft) 99 %
15.04.2014 18:00 7,7 C 7,7 C 7,7 C 57 % 1024,7 hPa 0,0 l/m 3,2 km/h (1 Bft) NW 315 0 min 0,076 mm 116 W/m -0,3 C 7,7 C 11,3 km/h (2 Bft) 100 %
15.04.2014 18:10 7,7 C 7,7 C 7,7 C 56 % 1024,7 hPa 0,0 l/m 4,8 km/h (1 Bft) NW 315 0 min 0,000 mm 104 W/m -0,5 C 7,7 C 12,9 km/h (3 Bft) 99 %
15.04.2014 18:20 7,6 C 7,6 C 7,7 C 58 % 1024,8 hPa 0,0 l/m 3,2 km/h (1 Bft) NW 315 0 min 0,000 mm 63 W/m -0,1 C 7,6 C 8,0 km/h (2 Bft) 100 %
15.04.2014 18:30 7,5 C 7,5 C 7,6 C 57 % 1024,7 hPa 0,0 l/m 1,6 km/h (1 Bft) NW 315 0 min 0,000 mm 77 W/m -0,5 C 7,5 C 8,0 km/h (2 Bft) 100 %
15.04.2014 18:40 7,5 C 7,5 C 7,5 C 58 % 1024,6 hPa 0,0 l/m 3,2 km/h (1 Bft) W-NW 292 0 min 0,000 mm 65 W/m -0,2 C 7,5 C 14,5 km/h (3 Bft) 100 %
15.04.2014 18:50 7,4 C 7,4 C 7,5 C 59 % 1024,7 hPa 0,0 l/m 4,8 km/h (1 Bft) NW 315 0 min 0,000 mm 53 W/m -0,1 C 7,4 C 11,3 km/h (2 Bft) 100 %
15.04.2014 19:00 7,3 C 7,3 C 7,4 C 60 % 1024,6 hPa 0,0 l/m 4,8 km/h (1 Bft) W-NW 292 0 min 0,051 mm 40 W/m 0,1 C 7,3 C 11,3 km/h (2 Bft) 99 %
15.04.2014 19:10 7,2 C 7,2 C 7,3 C 60 % 1024,6 hPa 0,0 l/m 3,2 km/h (1 Bft) NW 315 0 min 0,000 mm 39 W/m -0,0 C 7,2 C 11,3 km/h (2 Bft) 89 %
15.04.2014 19:30 6,9 C 6,9 C 7,3 C 61 % 1024,6 hPa 0,0 l/m 2,1 km/h (1 Bft) NW 311 0 min 0,000 mm 14 W/m -0,1 C 6,9 C 8,0 km/h (2 Bft) 97 %
15.04.2014 19:40 6,8 C 6,8 C 6,9 C 61 % 1024,6 hPa 0,0 l/m 1,6 km/h (1 Bft) NW 315 0 min 0,000 mm 14 W/m -0,2 C 6,8 C 9,7 km/h (2 Bft) 100 %
15.04.2014 19:50 6,8 C 6,8 C 6,8 C 63 % 1024,6 hPa 0,0 l/m 1,6 km/h (1 Bft) NW 315 0 min 0,000 mm 12 W/m 0,3 C 6,8 C 6,4 km/h (2 Bft) 100 %
15.04.2014 20:00 6,7 C 6,7 C 6,8 C 63 % 1024,7 hPa 0,0 l/m 1,6 km/h (1 Bft) W-NW 292 0 min 0,025 mm 7 W/m 0,2 C 6,7 C 6,4 km/h (2 Bft) 100 %
15.04.2014 20:10 6,6 C 6,6 C 6,7 C 63 % 1024,8 hPa 0,0 l/m 0,0 km/h (0 Bft) NW 315 0 min 0,000 mm 0 W/m 0,1 C 6,6 C 4,8 km/h (1 Bft) 100 %
15.04.2014 20:20 6,5 C 6,5 C 6,6 C 63 % 1024,9 hPa 0,0 l/m 1,6 km/h (1 Bft) NW 315 0 min 0,000 mm 0 W/m -0,0 C 6,5 C 8,0 km/h (2 Bft) 100 %
15.04.2014 20:30 6,4 C 6,4 C 6,5 C 64 % 1025,0 hPa 0,0 l/m 1,6 km/h (1 Bft) NW 315 0 min 0,000 mm 0 W/m 0,1 C 6,4 C 4,8 km/h (1 Bft) 100 %
15.04.2014 20:40 6,3 C 6,3 C 6,4 C 64 % 1025,1 hPa 0,0 l/m 0,0 km/h (0 Bft) W-NW 292 0 min 0,000 mm 0 W/m 0,0 C 6,3 C 3,2 km/h (1 Bft) 99 %
15.04.2014 20:50 6,2 C 6,2 C 6,3 C 65 % 1025,1 hPa 0,0 l/m 0,0 km/h (0 Bft) W-NW 292 0 min 0,000 mm 0 W/m 0,1 C 6,2 C 4,8 km/h (1 Bft) 98 %
15.04.2014 21:00 6,1 C 6,1 C 6,2 C 65 % 1025,3 hPa 0,0 l/m 0,0 km/h (0 Bft) NW 315 0 min 0,000 mm 0 W/m 0,0 C 6,1 C 1,6 km/h (1 Bft) 98 %
15.04.2014 21:10 5,9 C 5,9 C 6,1 C 67 % 1025,2 hPa 0,0 l/m 0,0 km/h (0 Bft) N 0 0 min 0,000 mm 0 W/m 0,3 C 5,9 C 0,0 km/h (0 Bft) 98 %
15.04.2014 21:20 5,7 C 5,7 C 5,9 C 67 % 1025,3 hPa 0,0 l/m 0,0 km/h (0 Bft) NW 315 0 min 0,000 mm 0 W/m 0,1 C 5,7 C 1,6 km/h (1 Bft) 99 %
15.04.2014 21:30 5,6 C 5,6 C 5,7 C 68 % 1025,4 hPa 0,0 l/m 0,0 km/h (0 Bft) N 0 0 min 0,000 mm 0 W/m 0,2 C 5,6 C 0,0 km/h (0 Bft) 100 %
15.04.2014 21:40 5,5 C 5,5 C 5,6 C 70 % 1025,4 hPa 0,0 l/m 0,0 km/h (0 Bft) NW 315 0 min 0,000 mm 0 W/m 0,5 C 5,5 C 1,6 km/h (1 Bft) 99 %
15.04.2014 21:50 5,3 C 5,3 C 5,5 C 72 % 1025,5 hPa 0,0 l/m 0,0 km/h (0 Bft) N 0 0 min 0,000 mm 0 W/m 0,7 C 5,3 C 0,0 km/h (0 Bft) 99 %
15.04.2014 22:00 5,2 C 5,2 C 5,3 C 71 % 1025,5 hPa 0,0 l/m 0,0 km/h (0 Bft) N 0 0 min 0,025 mm 0 W/m 0,4 C 5,2 C 0,0 km/h (0 Bft) 100 %
15.04.2014 22:10 5,2 C 5,2 C 5,2 C 73 % 1025,5 hPa 0,0 l/m 0,0 km/h (0 Bft) N 0 0 min 0,000 mm 0 W/m 0,8 C 5,2 C 0,0 km/h (0 Bft) 99 %
15.04.2014 22:20 5,1 C 5,1 C 5,2 C 73 % 1025,6 hPa 0,0 l/m 0,0 km/h (0 Bft) NW 315 0 min 0,000 mm 0 W/m 0,7 C 5,1 C 1,6 km/h (1 Bft) 100 %
15.04.2014 22:30 5,1 C 5,1 C 5,2 C 74 % 1025,8 hPa 0,0 l/m 0,0 km/h (0 Bft) N 0 0 min 0,000 mm 0 W/m 0,9 C 5,1 C 0,0 km/h (0 Bft) 100 %
15.04.2014 22:40 5,1 C 5,1 C 5,1 C 78 % 1025,8 hPa 0,0 l/m 0,0 km/h (0 Bft) N 0 0 min 0,000 mm 0 W/m 1,6 C 5,1 C 0,0 km/h (0 Bft) 100 %
15.04.2014 22:50 5,0 C 5,0 C 5,1 C 74 % 1025,8 hPa 0,0 l/m 0,0 km/h (0 Bft) N 0 0 min 0,000 mm 0 W/m 0,8 C 5,0 C 0,0 km/h (0 Bft) 100 %
15.04.2014 23:00 4,9 C 4,9 C 5,0 C 74 % 1025,8 hPa 0,0 l/m 0,0 km/h (0 Bft) N 0 0 min 0,025 mm 0 W/m 0,7 C 4,9 C 0,0 km/h (0 Bft) 100 %
15.04.2014 23:10 4,8 C 4,8 C 4,9 C 76 % 1026,1 hPa 0,0 l/m 0,0 km/h (0 Bft) N 0 0 min 0,000 mm 0 W/m 0,9 C 4,8 C 0,0 km/h (0 Bft) 99 %
15.04.2014 23:20 4,7 C 4,7 C 4,8 C 76 % 1026,1 hPa 0,0 l/m 0,0 km/h (0 Bft) N 0 0 min 0,000 mm 0 W/m 0,8 C 4,7 C 0,0 km/h (0 Bft) 100 %
15.04.2014 23:30 4,6 C 4,6 C 4,7 C 78 % 1026,1 hPa 0,0 l/m 0,0 km/h (0 Bft) N 0 0 min 0,000 mm 0 W/m 1,1 C 4,6 C 0,0 km/h (0 Bft) 100 %
15.04.2014 23:40 4,4 C 4,4 C 4,6 C 80 % 1026,3 hPa 0,0 l/m 0,0 km/h (0 Bft) N 0 0 min 0,000 mm 0 W/m 1,3 C 4,4 C 0,0 km/h (0 Bft) 100 %
15.04.2014 23:50 4,2 C 4,2 C 4,4 C 80 % 1026,3 hPa 0,0 l/m 0,0 km/h (0 Bft) N 0 0 min 0,000 mm 0 W/m 1,1 C 4,2 C 0,0 km/h (0 Bft) 100 %
_ Min-Zeit 06:10 06:10 06:20 16:30 00:00 - 02:00 - - - - - 16:40 00:40 21:10 16:00
Minimum _ 1,7 C 1,7 C 1,7 C 54 % 1019,8 hPa - 0,0 km/h (0 Bft) - - - - - -0,7 C 1,4 C 0,0 km/h (0 Bft) 88 %
_ Max-Zeit 16:20 16:30 16:20 06:20 23:40 00:00 00:20 - - 08:30 15:00 15:00 22:40 16:30 00:30 00:00
Maximum _ 8,4 C 8,3 C 8,4 C 86 % 1026,3 hPa 0,0 l/m 12,9 km/h
NW (3 Bft)
- - 10 min 0,127 mm 1067 W/m 1,6 C 8,3 C 29,0 km/h
NW (5 Bft)
100 %
Durchschnitt _ 5,3 C 5,2 C 5,4 C 71 % 1023,6 hPa #0,0 l/m 3,8 km/h (1 Bft) NW - #6:50 h #1,218 mm 170 W/m 0,2 C 5,0 C 10,9 km/h (2 Bft) 99 %
PRIVATE WETTERSTATION BILLIGHEIM-ALLFELD - www.neckar-odenwald-wetter.de - Holger Sonntag